createdAt,value
2016-07-03T00:00:03.470Z,13.8
2016-07-03T00:00:13.479Z,13.8
2016-07-03T00:00:23.475Z,13.8
2016-07-03T00:00:33.476Z,13.8
2016-07-03T00:00:43.474Z,13.8
2016-07-03T00:00:53.480Z,13.8
2016-07-03T00:01:03.480Z,13.8
2016-07-03T00:01:13.488Z,13.7
2016-07-03T00:01:23.488Z,13.7
2016-07-03T00:01:33.494Z,13.7
2016-07-03T00:01:43.493Z,13.8
2016-07-03T00:01:53.494Z,13.7
2016-07-03T00:02:03.495Z,13.7
2016-07-03T00:02:13.497Z,13.7
2016-07-03T00:02:23.502Z,13.8
2016-07-03T00:02:33.502Z,13.6
2016-07-03T00:02:43.507Z,13.7
2016-07-03T00:02:53.511Z,13.6
2016-07-03T00:03:03.507Z,13.7
2016-07-03T00:03:13.509Z,13.7
2016-07-03T00:03:23.519Z,13.8
2016-07-03T00:03:33.514Z,13.7
2016-07-03T00:03:43.516Z,13.7
2016-07-03T00:03:53.516Z,13.7
2016-07-03T00:04:03.519Z,13.7
2016-07-03T00:04:13.520Z,13.7
2016-07-03T00:04:23.526Z,13.6
2016-07-03T00:04:33.530Z,13.6
2016-07-03T00:04:43.527Z,13.7
2016-07-03T00:04:53.525Z,13.6
2016-07-03T00:05:03.532Z,13.6
2016-07-03T00:05:13.540Z,13.7
2016-07-03T00:05:23.538Z,13.7
2016-07-03T00:05:33.539Z,13.7
2016-07-03T00:05:43.544Z,13.6
2016-07-03T00:05:53.544Z,13.7
2016-07-03T00:06:03.542Z,13.6
2016-07-03T00:06:13.546Z,13.6
2016-07-03T00:06:23.548Z,13.6
2016-07-03T00:06:33.570Z,13.6
2016-07-03T00:06:43.554Z,13.7
2016-07-03T00:06:53.553Z,13.6
2016-07-03T00:07:03.556Z,13.6
2016-07-03T00:07:13.557Z,13.6
2016-07-03T00:07:23.561Z,13.7
2016-07-03T00:07:33.558Z,13.6
2016-07-03T00:07:43.564Z,13.6
2016-07-03T00:07:53.566Z,13.7
2016-07-03T00:08:03.562Z,13.6
2016-07-03T00:08:13.574Z,13.7
2016-07-03T00:08:23.571Z,13.7
2016-07-03T00:08:33.573Z,13.7
2016-07-03T00:08:43.579Z,13.6
2016-07-03T00:08:53.575Z,13.7
2016-07-03T00:09:03.586Z,13.6
2016-07-03T00:09:13.581Z,13.6
2016-07-03T00:09:23.583Z,13.7
2016-07-03T00:09:33.588Z,13.7
2016-07-03T00:09:43.591Z,13.6
2016-07-03T00:09:53.591Z,13.7
2016-07-03T00:10:03.592Z,13.7
2016-07-03T00:10:13.592Z,13.7
2016-07-03T00:10:23.600Z,13.6
2016-07-03T00:10:33.599Z,13.6
2016-07-03T00:10:43.602Z,13.7
2016-07-03T00:10:53.603Z,13.7
2016-07-03T00:11:03.607Z,13.6
2016-07-03T00:11:13.615Z,13.6
2016-07-03T00:11:23.605Z,13.7
2016-07-03T00:11:33.609Z,13.6
2016-07-03T00:11:43.612Z,13.6
2016-07-03T00:11:53.619Z,13.7
2016-07-03T00:12:03.613Z,13.6
2016-07-03T00:12:13.622Z,13.6
2016-07-03T00:12:23.625Z,13.6
2016-07-03T00:12:33.627Z,13.6
2016-07-03T00:12:43.627Z,13.6
2016-07-03T00:12:53.633Z,13.6
2016-07-03T00:13:03.626Z,13.6
2016-07-03T00:13:13.634Z,13.6
2016-07-03T00:13:23.635Z,13.6
2016-07-03T00:13:33.639Z,13.6
2016-07-03T00:13:43.636Z,13.6
2016-07-03T00:13:53.639Z,13.7
2016-07-03T00:14:03.643Z,13.7
2016-07-03T00:14:13.642Z,13.6
2016-07-03T00:14:23.644Z,13.6
2016-07-03T00:14:33.647Z,13.6
2016-07-03T00:14:43.649Z,13.6
2016-07-03T00:14:53.648Z,13.6
2016-07-03T00:15:03.650Z,13.6
2016-07-03T00:15:13.659Z,13.5
2016-07-03T00:15:23.657Z,13.5
2016-07-03T00:15:33.656Z,13.5
2016-07-03T00:15:43.657Z,13.6
2016-07-03T00:15:53.662Z,13.6
2016-07-03T00:16:03.666Z,13.5
2016-07-03T00:16:13.671Z,13.5
2016-07-03T00:16:23.665Z,13.6
2016-07-03T00:16:33.671Z,13.6
2016-07-03T00:16:43.668Z,13.6
2016-07-03T00:16:53.673Z,13.5
2016-07-03T00:17:03.677Z,13.5
2016-07-03T00:17:13.677Z,13.5
2016-07-03T00:17:23.682Z,13.5
2016-07-03T00:17:33.684Z,13.6
2016-07-03T00:17:43.699Z,13.5
2016-07-03T00:17:53.688Z,13.6
2016-07-03T00:18:03.683Z,13.5
2016-07-03T00:18:13.693Z,13.5
2016-07-03T00:18:23.695Z,13.6
2016-07-03T00:18:33.696Z,13.6
2016-07-03T00:18:43.695Z,13.5
2016-07-03T00:18:53.701Z,13.5
2016-07-03T00:19:03.705Z,13.5
2016-07-03T00:19:13.703Z,13.5
2016-07-03T00:19:23.707Z,13.4
2016-07-03T00:19:33.707Z,13.5
2016-07-03T00:19:43.711Z,13.5
2016-07-03T00:19:53.716Z,13.4
2016-07-03T00:20:03.713Z,13.4
2016-07-03T00:20:13.717Z,13.4
2016-07-03T00:20:23.717Z,13.4
2016-07-03T00:20:33.723Z,13.4
2016-07-03T00:20:43.726Z,13.4
2016-07-03T00:20:53.725Z,13.5
2016-07-03T00:21:03.730Z,13.5
2016-07-03T00:21:13.730Z,13.5
2016-07-03T00:21:23.731Z,13.5
2016-07-03T00:21:33.735Z,13.4
2016-07-03T00:21:43.737Z,13.4
2016-07-03T00:21:53.736Z,13.5
2016-07-03T00:22:03.744Z,13.5
2016-07-03T00:22:13.737Z,13.5
2016-07-03T00:22:23.738Z,13.4
2016-07-03T00:22:33.744Z,13.5
2016-07-03T00:22:43.750Z,13.4
2016-07-03T00:22:53.751Z,13.5
2016-07-03T00:23:03.749Z,13.4
2016-07-03T00:23:13.755Z,13.5
2016-07-03T00:23:23.755Z,13.4
2016-07-03T00:23:33.754Z,13.4
2016-07-03T00:23:43.127Z,13.5
2016-07-03T00:23:53.757Z,13.4
2016-07-03T00:24:03.762Z,13.4
2016-07-03T00:24:13.764Z,13.4
2016-07-03T00:24:23.764Z,13.5
2016-07-03T00:24:33.771Z,13.4
2016-07-03T00:24:43.762Z,13.5
2016-07-03T00:24:53.770Z,13.5
2016-07-03T00:25:03.771Z,13.4
2016-07-03T00:25:13.772Z,13.4
2016-07-03T00:25:23.774Z,13.4
2016-07-03T00:25:33.774Z,13.5
2016-07-03T00:25:43.780Z,13.4
2016-07-03T00:25:53.780Z,13.4
2016-07-03T00:26:03.780Z,13.4
2016-07-03T00:26:13.783Z,13.4
2016-07-03T00:26:23.783Z,13.4
2016-07-03T00:26:33.795Z,13.4
2016-07-03T00:26:43.790Z,13.4
2016-07-03T00:26:53.796Z,13.4
2016-07-03T00:27:03.796Z,13.4
2016-07-03T00:27:13.797Z,13.4
2016-07-03T00:27:23.797Z,13.4
2016-07-03T00:27:33.798Z,13.4
2016-07-03T00:27:43.797Z,13.4
2016-07-03T00:27:53.819Z,13.4
2016-07-03T00:28:03.804Z,13.4
2016-07-03T00:28:13.808Z,13.4
2016-07-03T00:28:23.809Z,13.4
2016-07-03T00:28:33.813Z,13.4
2016-07-03T00:28:43.817Z,13.3
2016-07-03T00:28:53.810Z,13.5
2016-07-03T00:29:03.821Z,13.4
2016-07-03T00:29:13.818Z,13.5
2016-07-03T00:29:23.190Z,13.4
2016-07-03T00:29:33.826Z,13.4
2016-07-03T00:29:43.832Z,13.4
2016-07-03T00:29:53.834Z,13.4
2016-07-03T00:30:03.836Z,13.4
2016-07-03T00:30:13.837Z,13.4
2016-07-03T00:30:23.837Z,13.4
2016-07-03T00:30:33.837Z,13.5
2016-07-03T00:30:43.849Z,13.4
2016-07-03T00:30:53.846Z,13.4
2016-07-03T00:31:03.854Z,13.4
2016-07-03T00:31:13.845Z,13.4
2016-07-03T00:31:23.853Z,13.3
2016-07-03T00:31:33.854Z,13.4
2016-07-03T00:31:43.853Z,13.4
2016-07-03T00:31:53.859Z,13.3
2016-07-03T00:32:03.858Z,13.4
2016-07-03T00:32:13.861Z,13.4
2016-07-03T00:32:23.861Z,13.4
2016-07-03T00:32:33.865Z,13.4
2016-07-03T00:32:43.866Z,13.4
2016-07-03T00:32:53.885Z,13.4
2016-07-03T00:33:03.873Z,13.4
2016-07-03T00:33:13.871Z,13.4
2016-07-03T00:33:23.879Z,13.4
2016-07-03T00:33:33.878Z,13.3
2016-07-03T00:33:43.879Z,13.4
2016-07-03T00:33:53.883Z,13.4
2016-07-03T00:34:03.884Z,13.3
2016-07-03T00:34:13.878Z,13.3
2016-07-03T00:34:23.884Z,13.4
2016-07-03T00:34:33.882Z,13.4
2016-07-03T00:34:43.893Z,13.4
2016-07-03T00:34:53.894Z,13.4
2016-07-03T00:35:03.895Z,13.3
2016-07-03T00:35:13.896Z,13.4
2016-07-03T00:35:23.899Z,13.4
2016-07-03T00:35:33.902Z,13.4
2016-07-03T00:35:43.904Z,13.3
2016-07-03T00:35:53.907Z,13.3
2016-07-03T00:36:03.913Z,13.4
2016-07-03T00:36:13.911Z,13.3
2016-07-03T00:36:23.908Z,13.4
2016-07-03T00:36:33.908Z,13.3
2016-07-03T00:36:43.918Z,13.4
2016-07-03T00:36:53.917Z,13.4
2016-07-03T00:37:03.924Z,13.3
2016-07-03T00:37:13.924Z,13.4
2016-07-03T00:37:23.920Z,13.4
2016-07-03T00:37:33.924Z,13.3
2016-07-03T00:37:43.925Z,13.3
2016-07-03T00:37:53.931Z,13.4
2016-07-03T00:38:03.934Z,13.4
2016-07-03T00:38:13.931Z,13.4
2016-07-03T00:38:23.936Z,13.4
2016-07-03T00:38:33.938Z,13.3
2016-07-03T00:38:43.941Z,13.4
2016-07-03T00:38:53.942Z,13.4
2016-07-03T00:39:03.943Z,13.3
2016-07-03T00:39:13.947Z,13.3
2016-07-03T00:39:23.947Z,13.3
2016-07-03T00:39:33.954Z,13.4
2016-07-03T00:39:43.955Z,13.3
2016-07-03T00:39:53.961Z,13.4
2016-07-03T00:40:03.958Z,13.4
2016-07-03T00:40:13.958Z,13.3
2016-07-03T00:40:23.962Z,13.3
2016-07-03T00:40:33.964Z,13.3
2016-07-03T00:40:43.963Z,13.3
2016-07-03T00:40:53.963Z,13.3
2016-07-03T00:41:03.964Z,13.4
2016-07-03T00:41:13.969Z,13.3
2016-07-03T00:41:23.974Z,13.3
2016-07-03T00:41:34.059Z,13.3
2016-07-03T00:41:43.974Z,13.3
2016-07-03T00:41:54.070Z,13.3
2016-07-03T00:42:03.982Z,13.3
2016-07-03T00:42:13.980Z,13.4
2016-07-03T00:42:23.980Z,13.4
2016-07-03T00:42:33.985Z,13.3
2016-07-03T00:42:43.991Z,13.3
2016-07-03T00:42:53.987Z,13.3
2016-07-03T00:43:03.989Z,13.4
2016-07-03T00:43:13.991Z,13.4
2016-07-03T00:43:23.992Z,13.3
2016-07-03T00:43:33.994Z,13.3
2016-07-03T00:43:44.011Z,13.3
2016-07-03T00:43:54.002Z,13.3
2016-07-03T00:44:04.003Z,13.3
2016-07-03T00:44:14.007Z,13.3
2016-07-03T00:44:24.003Z,13.4
2016-07-03T00:44:42.524Z,13.3
2016-07-03T00:44:52.485Z,13.4
2016-07-03T00:45:02.486Z,13.3
2016-07-03T00:45:12.704Z,13.3
2016-07-03T00:45:22.490Z,13.3
2016-07-03T00:45:32.716Z,13.3
2016-07-03T00:45:42.492Z,13.3
2016-07-03T00:45:52.495Z,13.3
2016-07-03T00:46:01.860Z,13.3
2016-07-03T00:46:12.505Z,13.2
2016-07-03T00:46:22.501Z,13.3
2016-07-03T00:46:32.503Z,13.4
2016-07-03T00:46:42.508Z,13.3
2016-07-03T00:46:52.504Z,13.3
2016-07-03T00:47:02.512Z,13.3
2016-07-03T00:47:12.558Z,13.3
2016-07-03T00:47:22.512Z,13.3
2016-07-03T00:47:32.516Z,13.3
2016-07-03T00:47:42.517Z,13.4
2016-07-03T00:47:52.525Z,13.3
2016-07-03T00:48:02.520Z,13.2
2016-07-03T00:48:12.521Z,13.4
2016-07-03T00:48:22.521Z,13.3
2016-07-03T00:48:32.529Z,13.3
2016-07-03T00:48:42.528Z,13.3
2016-07-03T00:48:52.528Z,13.2
2016-07-03T00:49:02.533Z,13.3
2016-07-03T00:49:12.533Z,13.3
2016-07-03T00:49:21.900Z,13.3
2016-07-03T00:49:32.540Z,13.3
2016-07-03T00:49:42.538Z,13.2
2016-07-03T00:49:52.542Z,13.2
2016-07-03T00:50:02.541Z,13.3
2016-07-03T00:50:12.545Z,13.2
2016-07-03T00:50:22.550Z,13.3
2016-07-03T00:50:32.552Z,13.2
2016-07-03T00:50:42.553Z,13.3
2016-07-03T00:50:52.553Z,13.3
2016-07-03T00:51:02.555Z,13.3
2016-07-03T00:51:12.556Z,13.2
2016-07-03T00:51:22.562Z,13.2
2016-07-03T00:51:32.564Z,13.3
2016-07-03T00:51:42.565Z,13.3
2016-07-03T00:51:52.566Z,13.3
2016-07-03T00:52:02.571Z,13.2
2016-07-03T00:52:12.568Z,13.3
2016-07-03T00:52:22.576Z,13.2
2016-07-03T00:52:32.576Z,13.3
2016-07-03T00:52:42.578Z,13.2
2016-07-03T00:52:52.577Z,13.3
2016-07-03T00:53:02.582Z,13.2
2016-07-03T00:53:12.577Z,13.2
2016-07-03T00:53:22.583Z,13.2
2016-07-03T00:53:32.585Z,13.3
2016-07-03T00:53:42.589Z,13.2
2016-07-03T00:53:52.584Z,13.2
2016-07-03T00:54:02.589Z,13.3
2016-07-03T00:54:12.591Z,13.3
2016-07-03T00:54:22.597Z,13.2
2016-07-03T00:54:32.596Z,13.2
2016-07-03T00:54:42.594Z,13.2
2016-07-03T00:54:52.611Z,13.2
2016-07-03T00:55:02.602Z,13.3
2016-07-03T00:55:12.612Z,13.2
2016-07-03T00:55:22.611Z,13.2
2016-07-03T00:55:32.616Z,13.2
2016-07-03T00:55:42.614Z,13.2
2016-07-03T00:55:52.616Z,13.2
2016-07-03T00:56:02.614Z,13.2
2016-07-03T00:56:12.622Z,13.2
2016-07-03T00:56:22.616Z,13.2
2016-07-03T00:56:32.627Z,13.2
2016-07-03T00:56:42.623Z,13.2
2016-07-03T00:56:52.633Z,13.2
2016-07-03T00:57:02.629Z,13.2
2016-07-03T00:57:12.631Z,13.2
2016-07-03T00:57:22.630Z,13.2
2016-07-03T00:57:32.646Z,13.2
2016-07-03T00:57:42.633Z,13.2
2016-07-03T00:57:52.637Z,13.2
2016-07-03T00:58:02.640Z,13.2
2016-07-03T00:58:12.646Z,13.1
2016-07-03T00:58:22.642Z,13.2
2016-07-03T00:58:32.644Z,13.2
2016-07-03T00:58:42.649Z,13.1
2016-07-03T00:58:52.652Z,13.1
2016-07-03T00:59:02.647Z,13.2
2016-07-03T00:59:12.654Z,13.2
2016-07-03T00:59:24.110Z,13.1
2016-07-03T00:59:32.653Z,13.1
2016-07-03T00:59:42.661Z,13.1
2016-07-03T00:59:52.656Z,13.2
2016-07-03T01:00:02.660Z,13.1
2016-07-03T01:00:12.665Z,13.1
2016-07-03T01:00:22.666Z,13.1
2016-07-03T01:00:32.667Z,13.2
2016-07-03T01:00:42.669Z,13.1
2016-07-03T01:00:52.823Z,13.1
2016-07-03T01:01:02.675Z,13.1
2016-07-03T01:01:12.682Z,13.1
2016-07-03T01:01:22.684Z,13.1
2016-07-03T01:01:32.690Z,13.2
2016-07-03T01:01:42.684Z,13.1
2016-07-03T01:01:52.686Z,13.1
2016-07-03T01:02:02.685Z,13.1
2016-07-03T01:02:12.686Z,13.1
2016-07-03T01:02:22.690Z,13.1
2016-07-03T01:02:32.691Z,13
2016-07-03T01:02:42.697Z,13.1
2016-07-03T01:02:52.704Z,13.2
2016-07-03T01:03:02.700Z,13.1
2016-07-03T01:03:12.700Z,13.1
2016-07-03T01:03:22.702Z,13.1
2016-07-03T01:03:32.705Z,13.1
2016-07-03T01:03:42.706Z,13.1
2016-07-03T01:03:52.705Z,13.1
2016-07-03T01:04:02.709Z,13.1
2016-07-03T01:04:12.710Z,13.1
2016-07-03T01:04:22.716Z,13.1
2016-07-03T01:04:32.717Z,13.1
2016-07-03T01:04:42.722Z,13.1
2016-07-03T01:04:52.111Z,13
2016-07-03T01:05:02.188Z,13.1
2016-07-03T01:05:12.727Z,13.1
2016-07-03T01:05:22.731Z,13.1
2016-07-03T01:05:32.734Z,13.1
2016-07-03T01:05:42.732Z,13.1
2016-07-03T01:05:52.730Z,13.1
2016-07-03T01:06:02.738Z,13.1
2016-07-03T01:06:12.736Z,13.1
2016-07-03T01:06:22.741Z,13.1
2016-07-03T01:06:32.738Z,13
2016-07-03T01:06:42.772Z,13.1
2016-07-03T01:06:52.743Z,13.1
2016-07-03T01:07:02.748Z,13.1
2016-07-03T01:07:12.749Z,13.1
2016-07-03T01:07:22.750Z,13.1
2016-07-03T01:07:32.758Z,13
2016-07-03T01:07:42.755Z,13.1
2016-07-03T01:07:52.753Z,13.1
2016-07-03T01:08:02.756Z,13.1
2016-07-03T01:08:12.757Z,13
2016-07-03T01:08:22.760Z,13.1
2016-07-03T01:08:32.764Z,13.1
2016-07-03T01:08:42.767Z,13
2016-07-03T01:08:52.133Z,13.1
2016-07-03T01:09:02.771Z,13
2016-07-03T01:09:12.772Z,13.1
2016-07-03T01:09:22.774Z,13.1
2016-07-03T01:09:32.775Z,13
2016-07-03T01:09:42.779Z,13.1
2016-07-03T01:09:52.775Z,13.1
2016-07-03T01:10:02.783Z,13.1
2016-07-03T01:10:12.780Z,12.9
2016-07-03T01:10:22.786Z,13.1
2016-07-03T01:10:32.786Z,13
2016-07-03T01:10:42.783Z,13
2016-07-03T01:10:52.786Z,13.1
2016-07-03T01:11:02.791Z,13
2016-07-03T01:11:12.793Z,13.1
2016-07-03T01:11:22.791Z,13.1
2016-07-03T01:11:32.796Z,13.1
2016-07-03T01:11:42.792Z,13.1
2016-07-03T01:11:52.793Z,13.1
2016-07-03T01:12:02.795Z,13.1
2016-07-03T01:12:12.799Z,13
2016-07-03T01:12:22.799Z,13
2016-07-03T01:12:32.803Z,13.1
2016-07-03T01:12:42.807Z,13
2016-07-03T01:12:52.808Z,13
2016-07-03T01:13:02.817Z,13
2016-07-03T01:13:12.811Z,13
2016-07-03T01:13:22.812Z,13
2016-07-03T01:13:32.826Z,13
2016-07-03T01:13:42.816Z,13
2016-07-03T01:13:52.820Z,13
2016-07-03T01:14:02.818Z,13
2016-07-03T01:14:12.822Z,12.9
2016-07-03T01:14:22.822Z,13
2016-07-03T01:14:32.828Z,12.9
2016-07-03T01:14:42.825Z,12.9
2016-07-03T01:14:52.830Z,13
2016-07-03T01:15:02.834Z,12.9
2016-07-03T01:15:12.835Z,12.9
2016-07-03T01:15:22.836Z,13
2016-07-03T01:15:32.840Z,12.9
2016-07-03T01:15:42.845Z,13
2016-07-03T01:15:52.839Z,13
2016-07-03T01:16:02.841Z,12.9
2016-07-03T01:16:12.893Z,13
2016-07-03T01:16:22.896Z,12.9
2016-07-03T01:16:32.856Z,13
2016-07-03T01:16:42.858Z,13
2016-07-03T01:16:52.859Z,12.9
2016-07-03T01:17:02.864Z,12.9
2016-07-03T01:17:12.865Z,12.9
2016-07-03T01:17:22.862Z,12.9
2016-07-03T01:17:32.925Z,13
2016-07-03T01:17:42.867Z,12.9
2016-07-03T01:17:52.892Z,12.9
2016-07-03T01:18:02.874Z,12.9
2016-07-03T01:18:12.875Z,13
2016-07-03T01:18:22.874Z,12.9
2016-07-03T01:18:32.880Z,13
2016-07-03T01:18:42.884Z,13
2016-07-03T01:18:52.246Z,12.9
2016-07-03T01:19:02.885Z,13
2016-07-03T01:19:12.897Z,12.9
2016-07-03T01:19:22.890Z,12.9
2016-07-03T01:19:32.889Z,12.9
2016-07-03T01:19:42.943Z,12.9
2016-07-03T01:19:52.896Z,12.9
2016-07-03T01:20:02.901Z,12.9
2016-07-03T01:20:12.901Z,12.9
2016-07-03T01:20:22.900Z,13
2016-07-03T01:20:32.908Z,12.9
2016-07-03T01:20:42.906Z,12.9
2016-07-03T01:20:52.914Z,12.9
2016-07-03T01:21:02.909Z,12.9
2016-07-03T01:21:12.910Z,13
2016-07-03T01:21:22.914Z,12.9
2016-07-03T01:21:32.917Z,12.9
2016-07-03T01:21:42.918Z,13
2016-07-03T01:21:52.925Z,12.9
2016-07-03T01:22:03.020Z,12.9
2016-07-03T01:22:13.014Z,13
2016-07-03T01:22:22.930Z,12.9
2016-07-03T01:22:32.942Z,12.9
2016-07-03T01:22:42.957Z,12.9
2016-07-03T01:22:52.934Z,12.9
2016-07-03T01:23:02.933Z,12.9
2016-07-03T01:23:12.935Z,12.9
2016-07-03T01:23:22.939Z,12.9
2016-07-03T01:23:32.940Z,12.9
2016-07-03T01:23:42.942Z,13
2016-07-03T01:23:52.943Z,12.9
2016-07-03T01:24:03.047Z,12.9
2016-07-03T01:24:12.948Z,12.9
2016-07-03T01:24:22.948Z,13
2016-07-03T01:24:32.953Z,12.9
2016-07-03T01:24:42.957Z,12.9
2016-07-03T01:24:52.954Z,12.9
2016-07-03T01:25:02.956Z,12.9
2016-07-03T01:25:12.964Z,12.9
2016-07-03T01:25:22.961Z,12.9
2016-07-03T01:25:32.964Z,12.9
2016-07-03T01:25:42.964Z,12.9
2016-07-03T01:25:53.018Z,12.9
2016-07-03T01:26:02.968Z,12.9
2016-07-03T01:26:12.968Z,12.9
2016-07-03T01:26:22.965Z,12.9
2016-07-03T01:26:32.972Z,12.9
2016-07-03T01:26:42.975Z,12.8
2016-07-03T01:26:52.978Z,12.9
2016-07-03T01:27:02.975Z,12.9
2016-07-03T01:27:12.985Z,12.9
2016-07-03T01:27:22.978Z,12.9
2016-07-03T01:27:32.988Z,12.9
2016-07-03T01:27:42.986Z,12.9
2016-07-03T01:27:52.989Z,12.9
2016-07-03T01:28:02.994Z,12.9
2016-07-03T01:28:12.354Z,13
2016-07-03T01:28:22.995Z,12.9
2016-07-03T01:28:32.998Z,12.9
2016-07-03T01:28:42.995Z,12.9
2016-07-03T01:28:52.363Z,12.9
2016-07-03T01:29:03.005Z,12.9
2016-07-03T01:29:12.372Z,12.9
2016-07-03T01:29:23.004Z,12.9
2016-07-03T01:29:33.011Z,12.8
2016-07-03T01:29:43.014Z,12.9
2016-07-03T01:29:53.038Z,12.9
2016-07-03T01:30:03.019Z,12.9
2016-07-03T01:30:13.015Z,12.9
2016-07-03T01:30:23.029Z,12.9
2016-07-03T01:30:33.022Z,12.9
2016-07-03T01:30:43.018Z,12.9
2016-07-03T01:30:53.018Z,12.9
2016-07-03T01:31:03.020Z,12.9
2016-07-03T01:31:13.024Z,12.9
2016-07-03T01:31:23.028Z,12.9
2016-07-03T01:31:33.028Z,12.9
2016-07-03T01:31:43.038Z,12.8
2016-07-03T01:31:53.077Z,12.8
2016-07-03T01:32:03.032Z,12.9
2016-07-03T01:32:13.035Z,12.8
2016-07-03T01:32:22.457Z,12.8
2016-07-03T01:32:33.040Z,12.9
2016-07-03T01:32:43.045Z,12.9
2016-07-03T01:32:53.045Z,12.9
2016-07-03T01:33:03.046Z,12.8
2016-07-03T01:33:13.047Z,12.9
2016-07-03T01:33:23.050Z,12.8
2016-07-03T01:33:33.054Z,12.8
2016-07-03T01:33:43.054Z,12.8
2016-07-03T01:33:53.052Z,12.9
2016-07-03T01:34:03.055Z,12.8
2016-07-03T01:34:13.062Z,12.8
2016-07-03T01:34:23.064Z,12.9
2016-07-03T01:34:33.062Z,12.8
2016-07-03T01:34:43.065Z,12.9
2016-07-03T01:34:53.069Z,12.8
2016-07-03T01:35:03.070Z,12.9
2016-07-03T01:35:13.075Z,12.8
2016-07-03T01:35:23.076Z,12.8
2016-07-03T01:35:33.075Z,12.9
2016-07-03T01:35:43.078Z,12.8
2016-07-03T01:35:53.094Z,12.8
2016-07-03T01:36:03.178Z,12.9
2016-07-03T01:36:12.444Z,12.9
2016-07-03T01:36:23.088Z,12.8
2016-07-03T01:36:33.092Z,12.9
2016-07-03T01:36:43.173Z,12.8
2016-07-03T01:36:53.090Z,12.8
2016-07-03T01:37:03.087Z,12.8
2016-07-03T01:37:13.089Z,12.8
2016-07-03T01:37:23.096Z,12.8
2016-07-03T01:37:33.096Z,12.8
2016-07-03T01:37:43.103Z,12.8
2016-07-03T01:37:53.167Z,12.8
2016-07-03T01:38:03.103Z,12.8
2016-07-03T01:38:13.105Z,12.8
2016-07-03T01:38:23.107Z,12.8
2016-07-03T01:38:33.185Z,12.8
2016-07-03T01:38:43.112Z,12.8
2016-07-03T01:38:53.123Z,12.8
2016-07-03T01:39:03.115Z,12.8
2016-07-03T01:39:13.223Z,12.8
2016-07-03T01:39:23.117Z,12.8
2016-07-03T01:39:33.114Z,12.8
2016-07-03T01:39:43.125Z,12.8
2016-07-03T01:39:53.153Z,12.8
2016-07-03T01:40:03.129Z,12.8
2016-07-03T01:40:13.138Z,12.8
2016-07-03T01:40:23.133Z,12.8
2016-07-03T01:40:33.137Z,12.8
2016-07-03T01:40:43.137Z,12.8
2016-07-03T01:40:53.151Z,12.8
2016-07-03T01:41:03.141Z,12.8
2016-07-03T01:41:12.507Z,12.9
2016-07-03T01:41:23.148Z,12.8
2016-07-03T01:41:33.161Z,12.8
2016-07-03T01:41:43.148Z,12.8
2016-07-03T01:41:53.154Z,12.8
2016-07-03T01:42:03.152Z,12.8
2016-07-03T01:42:13.153Z,12.8
2016-07-03T01:42:23.163Z,12.8
2016-07-03T01:42:33.161Z,12.8
2016-07-03T01:42:43.158Z,12.8
2016-07-03T01:42:53.165Z,12.8
2016-07-03T01:43:03.162Z,12.8
2016-07-03T01:43:13.165Z,12.8
2016-07-03T01:43:23.169Z,12.8
2016-07-03T01:43:32.531Z,12.8
2016-07-03T01:43:43.174Z,12.8
2016-07-03T01:43:53.172Z,12.8
2016-07-03T01:44:03.173Z,12.9
2016-07-03T01:44:13.179Z,12.8
2016-07-03T01:44:23.182Z,12.8
2016-07-03T01:44:33.182Z,12.8
2016-07-03T01:44:43.182Z,12.8
2016-07-03T01:44:53.183Z,12.8
2016-07-03T01:45:03.183Z,12.7
2016-07-03T01:45:13.185Z,12.8
2016-07-03T01:45:23.190Z,12.8
2016-07-03T01:45:33.193Z,12.8
2016-07-03T01:45:43.194Z,12.7
2016-07-03T01:45:53.200Z,12.7
2016-07-03T01:46:03.203Z,12.8
2016-07-03T01:46:13.202Z,12.8
2016-07-03T01:46:23.206Z,12.7
2016-07-03T01:46:33.207Z,12.8
2016-07-03T01:46:43.209Z,12.7
2016-07-03T01:46:53.205Z,12.8
2016-07-03T01:47:03.209Z,12.8
2016-07-03T01:47:13.209Z,12.8
2016-07-03T01:47:23.214Z,12.8
2016-07-03T01:47:33.214Z,12.7
2016-07-03T01:47:43.221Z,12.7
2016-07-03T01:47:53.224Z,12.8
2016-07-03T01:48:03.222Z,12.8
2016-07-03T01:48:13.228Z,12.8
2016-07-03T01:48:23.223Z,12.8
2016-07-03T01:48:33.227Z,12.7
2016-07-03T01:48:43.233Z,12.8
2016-07-03T01:48:53.231Z,12.7
2016-07-03T01:49:03.233Z,12.8
2016-07-03T01:49:12.598Z,12.7
2016-07-03T01:49:23.232Z,12.7
2016-07-03T01:49:33.242Z,12.7
2016-07-03T01:49:43.236Z,12.7
2016-07-03T01:49:53.244Z,12.8
2016-07-03T01:50:03.242Z,12.8
2016-07-03T01:50:13.247Z,12.7
2016-07-03T01:50:23.245Z,12.7
2016-07-03T01:50:33.250Z,12.7
2016-07-03T01:50:43.247Z,12.7
2016-07-03T01:50:53.253Z,12.8
2016-07-03T01:51:03.257Z,12.7
2016-07-03T01:51:13.257Z,12.7
2016-07-03T01:51:23.259Z,12.8
2016-07-03T01:51:33.257Z,12.7
2016-07-03T01:51:43.276Z,12.7
2016-07-03T01:51:53.262Z,12.7
2016-07-03T01:52:03.265Z,12.7
2016-07-03T01:52:13.265Z,12.7
2016-07-03T01:52:23.276Z,12.7
2016-07-03T01:52:33.267Z,12.7
2016-07-03T01:52:43.275Z,12.7
2016-07-03T01:52:53.272Z,12.7
2016-07-03T01:53:03.274Z,12.7
2016-07-03T01:53:13.277Z,12.7
2016-07-03T01:53:23.278Z,12.7
2016-07-03T01:53:32.648Z,12.7
2016-07-03T01:53:43.282Z,12.7
2016-07-03T01:53:53.285Z,12.7
2016-07-03T01:54:03.287Z,12.7
2016-07-03T01:54:13.298Z,12.7
2016-07-03T01:54:23.292Z,12.7
2016-07-03T01:54:33.291Z,12.7
2016-07-03T01:54:43.295Z,12.7
2016-07-03T01:54:53.303Z,12.7
2016-07-03T01:55:03.290Z,12.7
2016-07-03T01:55:13.297Z,12.7
2016-07-03T01:55:23.300Z,12.7
2016-07-03T01:55:32.668Z,12.7
2016-07-03T01:55:43.309Z,12.7
2016-07-03T01:55:53.311Z,12.7
2016-07-03T01:56:03.317Z,12.7
2016-07-03T01:56:13.316Z,12.7
2016-07-03T01:56:23.313Z,12.7
2016-07-03T01:56:32.682Z,12.6
2016-07-03T01:56:43.322Z,12.7
2016-07-03T01:56:53.324Z,12.7
2016-07-03T01:57:03.321Z,12.6
2016-07-03T01:57:13.324Z,12.6
2016-07-03T01:57:23.326Z,12.7
2016-07-03T01:57:33.332Z,12.7
2016-07-03T01:57:43.333Z,12.7
2016-07-03T01:57:53.332Z,12.7
2016-07-03T01:58:03.332Z,12.7
2016-07-03T01:58:13.336Z,12.7
2016-07-03T01:58:23.337Z,12.6
2016-07-03T01:58:33.343Z,12.7
2016-07-03T01:58:43.338Z,12.7
2016-07-03T01:58:53.343Z,12.7
2016-07-03T01:59:03.342Z,12.6
2016-07-03T01:59:13.354Z,12.7
2016-07-03T01:59:23.345Z,12.6
2016-07-03T01:59:33.353Z,12.7
2016-07-03T01:59:43.357Z,12.7
2016-07-03T01:59:53.362Z,12.6
2016-07-03T02:00:03.362Z,12.7
2016-07-03T02:00:13.363Z,12.6
2016-07-03T02:00:23.363Z,12.7
2016-07-03T02:00:33.364Z,12.6
2016-07-03T02:00:43.365Z,12.6
2016-07-03T02:00:53.371Z,12.6
2016-07-03T02:01:02.735Z,12.7
2016-07-03T02:01:13.371Z,12.7
2016-07-03T02:01:23.374Z,12.6
2016-07-03T02:01:33.383Z,12.6
2016-07-03T02:01:43.382Z,12.6
2016-07-03T02:01:53.388Z,12.7
2016-07-03T02:02:03.384Z,12.7
2016-07-03T02:02:13.387Z,12.7
2016-07-03T02:02:23.390Z,12.7
2016-07-03T02:02:33.390Z,12.7
2016-07-03T02:02:43.393Z,12.6
2016-07-03T02:02:53.393Z,12.7
2016-07-03T02:03:03.393Z,12.6
2016-07-03T02:03:13.397Z,12.6
2016-07-03T02:03:23.403Z,12.5
2016-07-03T02:03:33.401Z,12.5
2016-07-03T02:03:43.404Z,12.7
2016-07-03T02:03:53.403Z,12.6
2016-07-03T02:04:03.414Z,12.7
2016-07-03T02:04:13.410Z,12.7
2016-07-03T02:04:22.775Z,12.6
2016-07-03T02:04:33.414Z,12.6
2016-07-03T02:04:43.418Z,12.6
2016-07-03T02:04:53.415Z,12.7
2016-07-03T02:05:03.421Z,12.6
2016-07-03T02:05:13.419Z,12.6
2016-07-03T02:05:23.418Z,12.5
2016-07-03T02:05:33.423Z,12.5
2016-07-03T02:05:43.430Z,12.7
2016-07-03T02:05:53.429Z,12.6
2016-07-03T02:06:03.431Z,12.6
2016-07-03T02:06:13.432Z,12.5
2016-07-03T02:06:23.436Z,12.6
2016-07-03T02:06:33.437Z,12.6
2016-07-03T02:06:43.439Z,12.6
2016-07-03T02:06:53.454Z,12.7
2016-07-03T02:07:03.439Z,12.6
2016-07-03T02:07:13.440Z,12.6
2016-07-03T02:07:22.806Z,12.6
2016-07-03T02:07:33.446Z,12.6
2016-07-03T02:07:43.452Z,12.6
2016-07-03T02:07:53.449Z,12.6
2016-07-03T02:08:03.455Z,12.7
2016-07-03T02:08:13.456Z,12.6
2016-07-03T02:08:23.459Z,12.7
2016-07-03T02:08:33.459Z,12.6
2016-07-03T02:08:43.460Z,12.7
2016-07-03T02:08:53.461Z,12.5
2016-07-03T02:09:03.463Z,12.7
2016-07-03T02:09:13.464Z,12.6
2016-07-03T02:09:23.470Z,12.6
2016-07-03T02:09:33.474Z,12.6
2016-07-03T02:09:43.471Z,12.6
2016-07-03T02:09:53.468Z,12.7
2016-07-03T02:10:03.478Z,12.6
2016-07-03T02:10:13.478Z,12.6
2016-07-03T02:10:23.480Z,12.6
2016-07-03T02:10:33.483Z,12.6
2016-07-03T02:10:43.484Z,12.6
2016-07-03T02:10:53.486Z,12.6
2016-07-03T02:11:03.486Z,12.5
2016-07-03T02:11:13.486Z,12.6
2016-07-03T02:11:23.495Z,12.6
2016-07-03T02:11:33.500Z,12.6
2016-07-03T02:11:43.495Z,12.6
2016-07-03T02:11:54.901Z,12.5
2016-07-03T02:12:03.505Z,12.6
2016-07-03T02:12:13.506Z,12.5
2016-07-03T02:12:23.503Z,12.6
2016-07-03T02:12:33.510Z,12.6
2016-07-03T02:12:43.510Z,12.6
2016-07-03T02:12:53.509Z,12.6
2016-07-03T02:13:03.514Z,12.5
2016-07-03T02:13:13.514Z,12.5
2016-07-03T02:13:23.510Z,12.5
2016-07-03T02:13:33.519Z,12.6
2016-07-03T02:13:43.520Z,12.7